SWR242E LSZH-LEPA
Flight info
| Callsign | SWR242E |
|---|---|
| Flight time | 1h 33m |
| Altitude | 41000 |
| Route | VEBIT T50 ROTOS Z669 ULMES DCT VADAR DCT GEVEA DCT INCUS DCT BALSI DCT RETNO DCT TUPOX DCT MTG DCT DIVKO DCT VATIR DCT PIVUS DCT BODEQ DCT VERSO L129 LUNIK |
| Aircraft | A359/H-SDE2E3GHIJ3J4J5LM1ORWXY/LB1D1 |
Departure
| Time | 2026-05-07 18:09 |
|---|---|
| Airport | Zürich Airport (LSZH) |
Arrival
| Time | 2026-05-07 19:43 |
|---|---|
| Airport | Palma de Mallorca Airport (LEPA) |
| Time | Latitude | Longitude | Altitude | Speed | Heading |
|---|---|---|---|---|---|
| 2026-05-07 17:17 | 47.45039 | 8.55858 | 1413 ft | 0 kts | 6° |
| 2026-05-07 17:58 | 47.45032 | 8.55856 | 1413 ft | 4 kts | 4° |
| 2026-05-07 17:58 | 47.45005 | 8.55856 | 1412 ft | 4 kts | 351° |
| 2026-05-07 17:58 | 47.44981 | 8.55865 | 1418 ft | 4 kts | 333° |
| 2026-05-07 17:58 | 47.44960 | 8.55885 | 1417 ft | 4 kts | 313° |
| 2026-05-07 17:59 | 47.44946 | 8.55911 | 1408 ft | 5 kts | 299° |
| 2026-05-07 17:59 | 47.44934 | 8.55937 | 1407 ft | 4 kts | 325° |
| 2026-05-07 17:59 | 47.44911 | 8.55956 | 1407 ft | 4 kts | 338° |
| 2026-05-07 17:59 | 47.44895 | 8.55965 | 1406 ft | 3 kts | 334° |
| 2026-05-07 18:03 | 47.44913 | 8.55952 | 1406 ft | 7 kts | 334° |
| 2026-05-07 18:03 | 47.44946 | 8.55883 | 1408 ft | 10 kts | 283° |
| 2026-05-07 18:03 | 47.44955 | 8.55768 | 1406 ft | 12 kts | 276° |
| 2026-05-07 18:03 | 47.44958 | 8.55654 | 1403 ft | 10 kts | 261° |
| 2026-05-07 18:04 | 47.44952 | 8.55632 | 1403 ft | 0 kts | 248° |
| 2026-05-07 18:04 | 47.44948 | 8.55617 | 1403 ft | 5 kts | 248° |
| 2026-05-07 18:05 | 47.44926 | 8.55542 | 1401 ft | 11 kts | 246° |
| 2026-05-07 18:05 | 47.44909 | 8.55447 | 1401 ft | 5 kts | 287° |
| 2026-05-07 18:05 | 47.44930 | 8.55416 | 1402 ft | 5 kts | 324° |
| 2026-05-07 18:05 | 47.44945 | 8.55405 | 1402 ft | 0 kts | 333° |
| 2026-05-07 18:08 | 47.44948 | 8.55403 | 1402 ft | 4 kts | 333° |
| 2026-05-07 18:09 | 47.45123 | 8.55279 | 1404 ft | 63 kts | 335° |
| 2026-05-07 18:09 | 47.45732 | 8.54860 | 1398 ft | 130 kts | 335° |
| 2026-05-07 18:09 | 47.46718 | 8.54183 | 1598 ft | 167 kts | 334° |
| 2026-05-07 18:09 | 47.47729 | 8.53488 | 2514 ft | 155 kts | 334° |
| 2026-05-07 18:10 | 47.48762 | 8.52756 | 3017 ft | 177 kts | 333° |
| 2026-05-07 18:10 | 47.49950 | 8.51895 | 3350 ft | 203 kts | 334° |
| 2026-05-07 18:10 | 47.51264 | 8.50944 | 3988 ft | 214 kts | 334° |
| 2026-05-07 18:10 | 47.52543 | 8.49799 | 4811 ft | 217 kts | 320° |
| 2026-05-07 18:11 | 47.53483 | 8.48036 | 5600 ft | 223 kts | 295° |
| 2026-05-07 18:11 | 47.53776 | 8.46584 | 6143 ft | 225 kts | 277° |
| 2026-05-07 18:11 | 47.53452 | 8.43524 | 7309 ft | 229 kts | 246° |
| 2026-05-07 18:11 | 47.52742 | 8.41347 | 7973 ft | 247 kts | 243° |
| 2026-05-07 18:12 | 47.51689 | 8.39189 | 8461 ft | 269 kts | 223° |
| 2026-05-07 18:12 | 47.50040 | 8.37875 | 9351 ft | 275 kts | 196° |
| 2026-05-07 18:12 | 47.48156 | 8.37274 | 10301 ft | 280 kts | 191° |
| 2026-05-07 18:12 | 47.46174 | 8.36725 | 10838 ft | 302 kts | 192° |
| 2026-05-07 18:13 | 47.44054 | 8.36113 | 11238 ft | 325 kts | 193° |
| 2026-05-07 18:13 | 47.41753 | 8.35393 | 11854 ft | 339 kts | 196° |
| 2026-05-07 18:13 | 47.39600 | 8.34044 | 12649 ft | 343 kts | 215° |
| 2026-05-07 18:13 | 47.37905 | 8.31592 | 13515 ft | 345 kts | 236° |
| 2026-05-07 18:14 | 47.36711 | 8.28501 | 14335 ft | 349 kts | 243° |
| 2026-05-07 18:14 | 47.35601 | 8.25292 | 15115 ft | 354 kts | 243° |
| 2026-05-07 18:14 | 47.34475 | 8.22048 | 15890 ft | 358 kts | 243° |
| 2026-05-07 18:14 | 47.33318 | 8.18757 | 16684 ft | 363 kts | 243° |
| 2026-05-07 18:15 | 47.32148 | 8.15455 | 17445 ft | 367 kts | 243° |
| 2026-05-07 18:15 | 47.30954 | 8.12096 | 18221 ft | 371 kts | 243° |
| 2026-05-07 18:15 | 47.29752 | 8.08710 | 18999 ft | 375 kts | 243° |
| 2026-05-07 18:15 | 47.28540 | 8.05304 | 19795 ft | 378 kts | 243° |
| 2026-05-07 18:16 | 47.27309 | 8.01837 | 20573 ft | 382 kts | 243° |
| 2026-05-07 18:16 | 47.26164 | 7.98287 | 21305 ft | 385 kts | 246° |
| 2026-05-07 18:16 | 47.25101 | 7.94644 | 21989 ft | 390 kts | 248° |
| 2026-05-07 18:16 | 47.24071 | 7.90928 | 22682 ft | 393 kts | 248° |
| 2026-05-07 18:17 | 47.23093 | 7.87336 | 23329 ft | 397 kts | 248° |
| 2026-05-07 18:17 | 47.22061 | 7.83554 | 24014 ft | 400 kts | 248° |
| 2026-05-07 18:17 | 47.21007 | 7.79727 | 24684 ft | 403 kts | 248° |
| 2026-05-07 18:17 | 47.19931 | 7.75901 | 25331 ft | 406 kts | 247° |
| 2026-05-07 18:18 | 47.18637 | 7.72274 | 25947 ft | 410 kts | 239° |
| 2026-05-07 18:18 | 47.16995 | 7.68807 | 26572 ft | 413 kts | 235° |
| 2026-05-07 18:18 | 47.15243 | 7.65419 | 27182 ft | 416 kts | 234° |
| 2026-05-07 18:18 | 47.13439 | 7.62063 | 27772 ft | 419 kts | 233° |
| 2026-05-07 18:19 | 47.11608 | 7.58714 | 28343 ft | 422 kts | 233° |
| 2026-05-07 18:19 | 47.09762 | 7.55352 | 28886 ft | 425 kts | 233° |
| 2026-05-07 18:19 | 47.07894 | 7.51941 | 29422 ft | 427 kts | 233° |
| 2026-05-07 18:19 | 47.06036 | 7.48541 | 29925 ft | 430 kts | 233° |
| 2026-05-07 18:20 | 47.04161 | 7.45098 | 30424 ft | 432 kts | 233° |
| 2026-05-07 18:20 | 47.02283 | 7.41646 | 30911 ft | 434 kts | 234° |
| 2026-05-07 18:20 | 47.00423 | 7.38234 | 31374 ft | 436 kts | 234° |
| 2026-05-07 18:20 | 46.98515 | 7.34745 | 31797 ft | 439 kts | 233° |
| 2026-05-07 18:21 | 46.96595 | 7.31246 | 32215 ft | 441 kts | 233° |
| 2026-05-07 18:21 | 46.94673 | 7.27742 | 32591 ft | 444 kts | 233° |
| 2026-05-07 18:21 | 46.92734 | 7.24204 | 32964 ft | 446 kts | 233° |
| 2026-05-07 18:21 | 46.90780 | 7.20642 | 33323 ft | 449 kts | 233° |
| 2026-05-07 18:22 | 46.88824 | 7.17081 | 33668 ft | 451 kts | 233° |
| 2026-05-07 18:22 | 46.87515 | 7.14701 | 33896 ft | 452 kts | 233° |
| 2026-05-07 18:22 | 46.84879 | 7.09916 | 34487 ft | 451 kts | 233° |
| 2026-05-07 18:22 | 46.82912 | 7.06350 | 34907 ft | 450 kts | 233° |
| 2026-05-07 18:23 | 46.80946 | 7.02789 | 35275 ft | 451 kts | 233° |
| 2026-05-07 18:23 | 46.78981 | 6.99233 | 35650 ft | 450 kts | 233° |
| 2026-05-07 18:23 | 46.77014 | 6.95679 | 35991 ft | 451 kts | 233° |
| 2026-05-07 18:23 | 46.75035 | 6.92107 | 36300 ft | 452 kts | 233° |
| 2026-05-07 18:24 | 46.73087 | 6.88595 | 36661 ft | 451 kts | 232° |
| 2026-05-07 18:24 | 46.71105 | 6.85028 | 37003 ft | 451 kts | 232° |
| 2026-05-07 18:24 | 46.69133 | 6.81485 | 37380 ft | 449 kts | 232° |
| 2026-05-07 18:24 | 46.67168 | 6.77956 | 37735 ft | 448 kts | 232° |
| 2026-05-07 18:25 | 46.65215 | 6.74455 | 38064 ft | 446 kts | 232° |
| 2026-05-07 18:25 | 46.63189 | 6.71023 | 38402 ft | 446 kts | 229° |
| 2026-05-07 18:25 | 46.61065 | 6.67718 | 38650 ft | 447 kts | 227° |
| 2026-05-07 18:25 | 46.58896 | 6.64461 | 38893 ft | 448 kts | 227° |
| 2026-05-07 18:26 | 46.56725 | 6.61216 | 39155 ft | 448 kts | 227° |
| 2026-05-07 18:26 | 46.54564 | 6.57960 | 39400 ft | 448 kts | 227° |
| 2026-05-07 18:26 | 46.52437 | 6.54722 | 39591 ft | 450 kts | 227° |
| 2026-05-07 18:26 | 46.50252 | 6.51371 | 39805 ft | 450 kts | 228° |
| 2026-05-07 18:27 | 46.48129 | 6.48099 | 40008 ft | 451 kts | 228° |
| 2026-05-07 18:27 | 46.45976 | 6.44778 | 40189 ft | 452 kts | 228° |
| 2026-05-07 18:27 | 46.43824 | 6.41458 | 40424 ft | 452 kts | 228° |
| 2026-05-07 18:27 | 46.42392 | 6.39251 | 40542 ft | 452 kts | 228° |
| 2026-05-07 18:28 | 46.39504 | 6.34808 | 40771 ft | 454 kts | 228° |
| 2026-05-07 18:28 | 46.37329 | 6.31470 | 40947 ft | 455 kts | 228° |
| 2026-05-07 18:28 | 46.35151 | 6.28131 | 40995 ft | 457 kts | 228° |
| 2026-05-07 18:29 | 46.30791 | 6.21464 | 40990 ft | 457 kts | 228° |
| 2026-05-07 18:29 | 46.25871 | 6.15610 | 40992 ft | 459 kts | 213° |
| 2026-05-07 18:30 | 46.19990 | 6.12065 | 40991 ft | 465 kts | 196° |
| 2026-05-07 18:30 | 46.13607 | 6.10430 | 40989 ft | 468 kts | 192° |
| 2026-05-07 18:31 | 46.07137 | 6.09082 | 40984 ft | 469 kts | 191° |
| 2026-05-07 18:31 | 46.00680 | 6.07722 | 40973 ft | 468 kts | 192° |
| 2026-05-07 18:32 | 45.94235 | 6.06317 | 40969 ft | 468 kts | 192° |
| 2026-05-07 18:32 | 45.87839 | 6.04903 | 40963 ft | 468 kts | 192° |
| 2026-05-07 18:33 | 45.81374 | 6.03470 | 40963 ft | 468 kts | 192° |
| 2026-05-07 18:33 | 45.74944 | 6.02049 | 40962 ft | 468 kts | 192° |
| 2026-05-07 18:34 | 45.68500 | 6.00632 | 40961 ft | 468 kts | 192° |
| 2026-05-07 18:34 | 45.62056 | 5.99217 | 40965 ft | 467 kts | 192° |
| 2026-05-07 18:35 | 45.55643 | 5.97809 | 40970 ft | 467 kts | 192° |
| 2026-05-07 18:35 | 45.49246 | 5.96409 | 40969 ft | 467 kts | 192° |
| 2026-05-07 18:36 | 45.42853 | 5.94811 | 40973 ft | 465 kts | 195° |
| 2026-05-07 18:36 | 45.36553 | 5.92738 | 40970 ft | 464 kts | 197° |
| 2026-05-07 18:37 | 45.30258 | 5.90651 | 40963 ft | 464 kts | 196° |
| 2026-05-07 18:37 | 45.23957 | 5.88650 | 40963 ft | 464 kts | 195° |
| 2026-05-07 18:38 | 45.17650 | 5.86692 | 40962 ft | 463 kts | 195° |
| 2026-05-07 18:38 | 45.11361 | 5.84750 | 40976 ft | 462 kts | 195° |
| 2026-05-07 18:39 | 45.05129 | 5.82829 | 40981 ft | 461 kts | 195° |
| 2026-05-07 18:39 | 44.98858 | 5.80892 | 40981 ft | 461 kts | 195° |
| 2026-05-07 18:40 | 44.92590 | 5.78965 | 40974 ft | 460 kts | 195° |
| 2026-05-07 18:40 | 44.86333 | 5.77045 | 40980 ft | 459 kts | 196° |
| 2026-05-07 18:41 | 44.80106 | 5.75138 | 40981 ft | 458 kts | 195° |
| 2026-05-07 18:41 | 44.73906 | 5.73246 | 40975 ft | 457 kts | 196° |
| 2026-05-07 18:42 | 44.67680 | 5.71348 | 40975 ft | 457 kts | 196° |
| 2026-05-07 18:42 | 44.61478 | 5.69459 | 40961 ft | 456 kts | 196° |
| 2026-05-07 18:43 | 44.55268 | 5.67573 | 40962 ft | 456 kts | 196° |
| 2026-05-07 18:43 | 44.49105 | 5.65706 | 40966 ft | 455 kts | 196° |
| 2026-05-07 18:44 | 44.42911 | 5.63833 | 40969 ft | 455 kts | 196° |
| 2026-05-07 18:44 | 44.37808 | 5.62089 | 40966 ft | 451 kts | 202° |
| 2026-05-07 18:45 | 44.31919 | 5.59055 | 40964 ft | 450 kts | 204° |
| 2026-05-07 18:45 | 44.26091 | 5.55862 | 40964 ft | 450 kts | 205° |
| 2026-05-07 18:46 | 44.20272 | 5.52656 | 40955 ft | 449 kts | 205° |
| 2026-05-07 18:46 | 44.14446 | 5.49465 | 40963 ft | 450 kts | 204° |
| 2026-05-07 18:47 | 44.08618 | 5.46293 | 40961 ft | 449 kts | 204° |
| 2026-05-07 18:47 | 44.02790 | 5.43130 | 40961 ft | 449 kts | 204° |
| 2026-05-07 18:48 | 43.96956 | 5.39970 | 40963 ft | 449 kts | 204° |
| 2026-05-07 18:48 | 43.91181 | 5.36839 | 40961 ft | 447 kts | 204° |
| 2026-05-07 18:49 | 43.85382 | 5.33709 | 40962 ft | 447 kts | 204° |
| 2026-05-07 18:49 | 43.79582 | 5.30582 | 40962 ft | 447 kts | 204° |
| 2026-05-07 18:50 | 43.73768 | 5.27455 | 40965 ft | 447 kts | 204° |
| 2026-05-07 18:50 | 43.67959 | 5.24335 | 40962 ft | 447 kts | 204° |
| 2026-05-07 18:51 | 43.62166 | 5.21232 | 40962 ft | 447 kts | 204° |
| 2026-05-07 18:51 | 43.56393 | 5.18145 | 40962 ft | 447 kts | 204° |
| 2026-05-07 18:52 | 43.50584 | 5.15045 | 40962 ft | 447 kts | 204° |
| 2026-05-07 18:52 | 43.44779 | 5.11954 | 40963 ft | 447 kts | 204° |
| 2026-05-07 18:53 | 43.39044 | 5.08686 | 40962 ft | 445 kts | 210° |
| 2026-05-07 18:53 | 43.33813 | 5.04201 | 40961 ft | 442 kts | 216° |
| 2026-05-07 18:54 | 43.28731 | 4.99420 | 40962 ft | 442 kts | 217° |
| 2026-05-07 18:54 | 43.23695 | 4.94639 | 40963 ft | 442 kts | 217° |
| 2026-05-07 18:55 | 43.18623 | 4.89857 | 40962 ft | 442 kts | 216° |
| 2026-05-07 18:55 | 43.13535 | 4.85090 | 40962 ft | 442 kts | 216° |
| 2026-05-07 18:56 | 43.08444 | 4.80334 | 40962 ft | 442 kts | 216° |
| 2026-05-07 18:56 | 43.03248 | 4.75901 | 40962 ft | 444 kts | 212° |
| 2026-05-07 18:57 | 42.97863 | 4.71770 | 40963 ft | 444 kts | 211° |
| 2026-05-07 18:57 | 42.92447 | 4.67687 | 40962 ft | 444 kts | 211° |
| 2026-05-07 18:58 | 42.87030 | 4.63607 | 40973 ft | 444 kts | 211° |
| 2026-05-07 18:58 | 42.81621 | 4.59530 | 40974 ft | 444 kts | 211° |
| 2026-05-07 18:59 | 42.76215 | 4.55459 | 40972 ft | 444 kts | 211° |
| 2026-05-07 18:59 | 42.70835 | 4.51416 | 40973 ft | 443 kts | 211° |
| 2026-05-07 19:00 | 42.65461 | 4.47384 | 40962 ft | 443 kts | 211° |
| 2026-05-07 19:00 | 42.60031 | 4.43320 | 40962 ft | 443 kts | 211° |
| 2026-05-07 19:01 | 42.54632 | 4.39286 | 40962 ft | 443 kts | 211° |
| 2026-05-07 19:01 | 42.49230 | 4.35259 | 40962 ft | 443 kts | 211° |
| 2026-05-07 19:02 | 42.43834 | 4.31245 | 40961 ft | 443 kts | 211° |
| 2026-05-07 19:02 | 42.38431 | 4.27233 | 40962 ft | 442 kts | 211° |
| 2026-05-07 19:03 | 42.33033 | 4.23232 | 40964 ft | 442 kts | 211° |
| 2026-05-07 19:03 | 42.27628 | 4.19235 | 40962 ft | 442 kts | 211° |
| 2026-05-07 19:04 | 42.22237 | 4.15255 | 40962 ft | 442 kts | 211° |
| 2026-05-07 19:04 | 42.16866 | 4.11298 | 40962 ft | 442 kts | 211° |
| 2026-05-07 19:05 | 42.11467 | 4.07322 | 40962 ft | 442 kts | 211° |
| 2026-05-07 19:05 | 42.06060 | 4.03358 | 40962 ft | 442 kts | 211° |
| 2026-05-07 19:06 | 42.00651 | 3.99401 | 40962 ft | 442 kts | 211° |
| 2026-05-07 19:06 | 41.92421 | 3.93855 | 40963 ft | 446 kts | 202° |
| 2026-05-07 19:07 | 41.86365 | 3.91886 | 40964 ft | 450 kts | 194° |
| 2026-05-07 19:07 | 41.80173 | 3.90448 | 40974 ft | 451 kts | 193° |
| 2026-05-07 19:08 | 41.73970 | 3.89081 | 40969 ft | 451 kts | 193° |
| 2026-05-07 19:08 | 41.67781 | 3.87688 | 40972 ft | 451 kts | 194° |
| 2026-05-07 19:09 | 41.61634 | 3.86282 | 40973 ft | 451 kts | 194° |
| 2026-05-07 19:09 | 41.58592 | 3.85580 | 40970 ft | 451 kts | 194° |
| 2026-05-07 19:10 | 41.52415 | 3.84155 | 40970 ft | 450 kts | 194° |
| 2026-05-07 19:10 | 41.46281 | 3.82752 | 40971 ft | 450 kts | 194° |
| 2026-05-07 19:11 | 41.40102 | 3.81341 | 40974 ft | 450 kts | 194° |
| 2026-05-07 19:11 | 41.33921 | 3.79931 | 40971 ft | 450 kts | 194° |
| 2026-05-07 19:12 | 41.27743 | 3.78524 | 40971 ft | 449 kts | 194° |
| 2026-05-07 19:12 | 41.21578 | 3.77122 | 40955 ft | 449 kts | 194° |
| 2026-05-07 19:13 | 41.15447 | 3.75580 | 40952 ft | 445 kts | 200° |
| 2026-05-07 19:13 | 41.09657 | 3.72767 | 40952 ft | 442 kts | 204° |
| 2026-05-07 19:14 | 41.03911 | 3.69819 | 40952 ft | 442 kts | 204° |
| 2026-05-07 19:14 | 40.98207 | 3.66888 | 40953 ft | 442 kts | 204° |
| 2026-05-07 19:15 | 40.92476 | 3.63946 | 40820 ft | 441 kts | 204° |
| 2026-05-07 19:15 | 40.89611 | 3.62478 | 40575 ft | 441 kts | 204° |
| 2026-05-07 19:15 | 40.86781 | 3.61028 | 40325 ft | 440 kts | 204° |
| 2026-05-07 19:16 | 40.83896 | 3.59551 | 39975 ft | 437 kts | 204° |
| 2026-05-07 19:16 | 40.81420 | 3.58285 | 39370 ft | 438 kts | 204° |
| 2026-05-07 19:16 | 40.78555 | 3.56821 | 38689 ft | 437 kts | 204° |
| 2026-05-07 19:16 | 40.75727 | 3.55377 | 38020 ft | 435 kts | 204° |
| 2026-05-07 19:17 | 40.72903 | 3.53936 | 37344 ft | 434 kts | 204° |
| 2026-05-07 19:17 | 40.70091 | 3.52503 | 36663 ft | 432 kts | 204° |
| 2026-05-07 19:17 | 40.67302 | 3.51082 | 35973 ft | 431 kts | 203° |
| 2026-05-07 19:17 | 40.64498 | 3.49656 | 35252 ft | 430 kts | 203° |
| 2026-05-07 19:18 | 40.61709 | 3.48238 | 34494 ft | 430 kts | 203° |
| 2026-05-07 19:18 | 40.58902 | 3.46812 | 33671 ft | 432 kts | 202° |
| 2026-05-07 19:18 | 40.56096 | 3.45388 | 32829 ft | 434 kts | 202° |
| 2026-05-07 19:18 | 40.53272 | 3.43958 | 31961 ft | 436 kts | 202° |
| 2026-05-07 19:19 | 40.50442 | 3.42524 | 31063 ft | 438 kts | 202° |
| 2026-05-07 19:19 | 40.47597 | 3.41087 | 30330 ft | 436 kts | 202° |
| 2026-05-07 19:19 | 40.44713 | 3.39875 | 29678 ft | 434 kts | 195° |
| 2026-05-07 19:19 | 40.41715 | 3.39390 | 29018 ft | 435 kts | 184° |
| 2026-05-07 19:20 | 40.38684 | 3.39478 | 28350 ft | 434 kts | 180° |
| 2026-05-07 19:20 | 40.35710 | 3.39669 | 27693 ft | 432 kts | 180° |
| 2026-05-07 19:20 | 40.32680 | 3.39862 | 27021 ft | 430 kts | 180° |
| 2026-05-07 19:20 | 40.29735 | 3.40042 | 26363 ft | 427 kts | 180° |
| 2026-05-07 19:21 | 40.26775 | 3.40217 | 25705 ft | 424 kts | 180° |
| 2026-05-07 19:21 | 40.23833 | 3.40387 | 25052 ft | 422 kts | 180° |
| 2026-05-07 19:21 | 40.20910 | 3.40555 | 24400 ft | 419 kts | 180° |
| 2026-05-07 19:21 | 40.18006 | 3.40721 | 23754 ft | 416 kts | 179° |
| 2026-05-07 19:22 | 40.15121 | 3.40885 | 23099 ft | 413 kts | 179° |
| 2026-05-07 19:22 | 40.12263 | 3.41047 | 22457 ft | 409 kts | 179° |
| 2026-05-07 19:22 | 40.09444 | 3.41206 | 21820 ft | 406 kts | 179° |
| 2026-05-07 19:22 | 40.06616 | 3.41366 | 21169 ft | 403 kts | 179° |
| 2026-05-07 19:23 | 40.03821 | 3.41523 | 20523 ft | 400 kts | 178° |
| 2026-05-07 19:23 | 40.01051 | 3.41680 | 19886 ft | 398 kts | 178° |
| 2026-05-07 19:23 | 39.98344 | 3.41632 | 19380 ft | 391 kts | 185° |
| 2026-05-07 19:23 | 39.95674 | 3.40960 | 18355 ft | 397 kts | 197° |
| 2026-05-07 19:24 | 39.93019 | 3.39720 | 17535 ft | 399 kts | 201° |
| 2026-05-07 19:24 | 39.90441 | 3.38411 | 17091 ft | 397 kts | 201° |
| 2026-05-07 19:24 | 39.87899 | 3.37105 | 16956 ft | 397 kts | 201° |
| 2026-05-07 19:24 | 39.85336 | 3.35787 | 16950 ft | 397 kts | 201° |
| 2026-05-07 19:25 | 39.82772 | 3.34468 | 16954 ft | 396 kts | 201° |
| 2026-05-07 19:25 | 39.80206 | 3.33148 | 16911 ft | 394 kts | 201° |
| 2026-05-07 19:25 | 39.77678 | 3.31848 | 16298 ft | 388 kts | 201° |
| 2026-05-07 19:25 | 39.75147 | 3.30547 | 15255 ft | 396 kts | 201° |
| 2026-05-07 19:26 | 39.72620 | 3.29248 | 14751 ft | 377 kts | 201° |
| 2026-05-07 19:26 | 39.70273 | 3.28043 | 14265 ft | 348 kts | 201° |
| 2026-05-07 19:26 | 39.68106 | 3.26932 | 13789 ft | 324 kts | 201° |
| 2026-05-07 19:26 | 39.66048 | 3.25875 | 13104 ft | 311 kts | 201° |
| 2026-05-07 19:27 | 39.64062 | 3.24834 | 12262 ft | 306 kts | 204° |
| 2026-05-07 19:27 | 39.62375 | 3.23373 | 11940 ft | 285 kts | 224° |
| 2026-05-07 19:27 | 39.61242 | 3.21337 | 11608 ft | 275 kts | 243° |
| 2026-05-07 19:27 | 39.60425 | 3.19091 | 11264 ft | 275 kts | 243° |
| 2026-05-07 19:28 | 39.59558 | 3.16875 | 10918 ft | 275 kts | 242° |
| 2026-05-07 19:28 | 39.58706 | 3.14713 | 10604 ft | 275 kts | 242° |
| 2026-05-07 19:28 | 39.57976 | 3.12849 | 10321 ft | 275 kts | 242° |
| 2026-05-07 19:28 | 39.57109 | 3.10628 | 9990 ft | 278 kts | 242° |
| 2026-05-07 19:29 | 39.56228 | 3.08373 | 9665 ft | 287 kts | 242° |
| 2026-05-07 19:29 | 39.55316 | 3.06032 | 9433 ft | 294 kts | 242° |
| 2026-05-07 19:29 | 39.54390 | 3.03653 | 9130 ft | 295 kts | 242° |
| 2026-05-07 19:29 | 39.53465 | 3.01277 | 8639 ft | 296 kts | 242° |
| 2026-05-07 19:30 | 39.52851 | 2.99698 | 8351 ft | 295 kts | 242° |
| 2026-05-07 19:30 | 39.51933 | 2.97344 | 7976 ft | 292 kts | 242° |
| 2026-05-07 19:30 | 39.51021 | 2.95002 | 7622 ft | 290 kts | 242° |
| 2026-05-07 19:30 | 39.49823 | 2.91935 | 7141 ft | 288 kts | 242° |
| 2026-05-07 19:31 | 39.48919 | 2.89621 | 6817 ft | 287 kts | 242° |
| 2026-05-07 19:31 | 39.48023 | 2.87330 | 6459 ft | 285 kts | 242° |
| 2026-05-07 19:31 | 39.47418 | 2.85783 | 6229 ft | 284 kts | 242° |
| 2026-05-07 19:31 | 39.46243 | 2.82780 | 5764 ft | 282 kts | 242° |
| 2026-05-07 19:32 | 39.45643 | 2.81249 | 5530 ft | 280 kts | 242° |
| 2026-05-07 19:32 | 39.44798 | 2.79086 | 5209 ft | 260 kts | 242° |
| 2026-05-07 19:32 | 39.44011 | 2.77058 | 4891 ft | 244 kts | 242° |
| 2026-05-07 19:32 | 39.43285 | 2.75177 | 4587 ft | 231 kts | 242° |
| 2026-05-07 19:33 | 39.42589 | 2.73367 | 4269 ft | 219 kts | 241° |
| 2026-05-07 19:33 | 39.41931 | 2.71641 | 4028 ft | 206 kts | 241° |
| 2026-05-07 19:33 | 39.41315 | 2.70008 | 3998 ft | 200 kts | 242° |
| 2026-05-07 19:33 | 39.40704 | 2.68385 | 3994 ft | 200 kts | 242° |
| 2026-05-07 19:34 | 39.40097 | 2.66773 | 3981 ft | 200 kts | 242° |
| 2026-05-07 19:34 | 39.39488 | 2.65156 | 3987 ft | 200 kts | 242° |
| 2026-05-07 19:34 | 39.38880 | 2.63542 | 3838 ft | 199 kts | 241° |
| 2026-05-07 19:34 | 39.38276 | 2.61936 | 3689 ft | 199 kts | 242° |
| 2026-05-07 19:35 | 39.37704 | 2.60308 | 3532 ft | 200 kts | 249° |
| 2026-05-07 19:35 | 39.37621 | 2.58518 | 3471 ft | 201 kts | 276° |
| 2026-05-07 19:35 | 39.37870 | 2.56743 | 3469 ft | 202 kts | 281° |
| 2026-05-07 19:35 | 39.38174 | 2.54970 | 3468 ft | 202 kts | 282° |
| 2026-05-07 19:36 | 39.38480 | 2.53220 | 3468 ft | 202 kts | 282° |
| 2026-05-07 19:36 | 39.38791 | 2.51448 | 3467 ft | 202 kts | 282° |
| 2026-05-07 19:36 | 39.39102 | 2.49679 | 3467 ft | 202 kts | 282° |
| 2026-05-07 19:36 | 39.39427 | 2.47911 | 3463 ft | 202 kts | 285° |
| 2026-05-07 19:37 | 39.40160 | 2.46388 | 3456 ft | 201 kts | 321° |
| 2026-05-07 19:37 | 39.41409 | 2.45697 | 3457 ft | 195 kts | 359° |
| 2026-05-07 19:37 | 39.42674 | 2.46109 | 3450 ft | 187 kts | 41° |
| 2026-05-07 19:37 | 39.43499 | 2.47361 | 3468 ft | 183 kts | 62° |
| 2026-05-07 19:38 | 39.44156 | 2.48779 | 3466 ft | 184 kts | 62° |
| 2026-05-07 19:38 | 39.44822 | 2.50201 | 3465 ft | 185 kts | 62° |
| 2026-05-07 19:38 | 39.45491 | 2.51608 | 3510 ft | 182 kts | 61° |
| 2026-05-07 19:38 | 39.46162 | 2.52999 | 3367 ft | 182 kts | 61° |
| 2026-05-07 19:39 | 39.46828 | 2.54398 | 3064 ft | 179 kts | 62° |
| 2026-05-07 19:39 | 39.47464 | 2.55745 | 2759 ft | 171 kts | 62° |
| 2026-05-07 19:39 | 39.48074 | 2.57034 | 2512 ft | 166 kts | 61° |
| 2026-05-07 19:39 | 39.48670 | 2.58292 | 2287 ft | 160 kts | 60° |
| 2026-05-07 19:40 | 39.49245 | 2.59505 | 2080 ft | 158 kts | 60° |
| 2026-05-07 19:40 | 39.49815 | 2.60716 | 1868 ft | 157 kts | 60° |
| 2026-05-07 19:40 | 39.50378 | 2.61904 | 1677 ft | 156 kts | 59° |
| 2026-05-07 19:40 | 39.50941 | 2.63097 | 1456 ft | 154 kts | 59° |
| 2026-05-07 19:41 | 39.51490 | 2.64257 | 1251 ft | 145 kts | 58° |
| 2026-05-07 19:41 | 39.51994 | 2.65322 | 1069 ft | 133 kts | 58° |
| 2026-05-07 19:41 | 39.52461 | 2.66308 | 899 ft | 125 kts | 58° |
| 2026-05-07 19:41 | 39.52911 | 2.67263 | 735 ft | 124 kts | 58° |
| 2026-05-07 19:42 | 39.53363 | 2.68219 | 573 ft | 125 kts | 58° |
| 2026-05-07 19:42 | 39.53818 | 2.69182 | 384 ft | 125 kts | 58° |
| 2026-05-07 19:42 | 39.54274 | 2.70138 | 213 ft | 126 kts | 57° |
| 2026-05-07 19:42 | 39.54734 | 2.71106 | 74 ft | 128 kts | 59° |
| 2026-05-07 19:43 | 39.55171 | 2.72032 | 45 ft | 106 kts | 58° |
| 2026-05-07 19:43 | 39.55419 | 2.72556 | 44 ft | 25 kts | 59° |
| 2026-05-07 19:43 | 39.55473 | 2.72693 | 44 ft | 17 kts | 72° |
| 2026-05-07 19:43 | 39.55493 | 2.72847 | 44 ft | 18 kts | 85° |
| 2026-05-07 19:44 | 39.55498 | 2.73016 | 44 ft | 20 kts | 89° |
| 2026-05-07 19:44 | 39.55508 | 2.73174 | 44 ft | 15 kts | 75° |
| 2026-05-07 19:44 | 39.55560 | 2.73301 | 44 ft | 17 kts | 58° |
| 2026-05-07 19:44 | 39.55604 | 2.73392 | 44 ft | 0 kts | 58° |
| 2026-05-07 19:45 | 39.55605 | 2.73395 | 44 ft | 2 kts | 58° |
| 2026-05-07 19:45 | 39.55622 | 2.73437 | 44 ft | 8 kts | 69° |
| 2026-05-07 19:45 | 39.55596 | 2.73518 | 44 ft | 13 kts | 140° |
| 2026-05-07 19:46 | 39.55506 | 2.73591 | 44 ft | 18 kts | 149° |
| 2026-05-07 19:46 | 39.55385 | 2.73687 | 44 ft | 22 kts | 148° |
| 2026-05-07 19:46 | 39.55282 | 2.73767 | 44 ft | 11 kts | 149° |
| 2026-05-07 19:46 | 39.55223 | 2.73814 | 44 ft | 8 kts | 149° |
| 2026-05-07 19:47 | 39.55182 | 2.73807 | 44 ft | 7 kts | 213° |
| 2026-05-07 19:47 | 39.55134 | 2.73785 | 44 ft | 8 kts | 174° |
| 2026-05-07 19:47 | 39.55079 | 2.73820 | 44 ft | 10 kts | 149° |
| 2026-05-07 19:47 | 39.55015 | 2.73870 | 44 ft | 12 kts | 149° |
| 2026-05-07 19:48 | 39.54961 | 2.73910 | 44 ft | 6 kts | 159° |
| 2026-05-07 19:48 | 39.54933 | 2.73887 | 44 ft | 6 kts | 234° |
| 2026-05-07 19:48 | 39.54917 | 2.73850 | 44 ft | 0 kts | 246° |
| 2026-05-07 19:48 | 39.54917 | 2.73848 | 44 ft | 1 kts | 246° |
| 2026-05-07 19:49 | 39.54910 | 2.73827 | 44 ft | 0 kts | 248° |
| 2026-05-07 19:49 | 39.54910 | 2.73826 | 44 ft | 0 kts | 248° |
| 2026-05-07 19:49 | 39.54905 | 2.73812 | 44 ft | 3 kts | 248° |
| 2026-05-07 19:50 | 39.54903 | 2.73804 | 44 ft | 0 kts | 249° |